createdAt,value
2022-07-25T00:01:26.871Z,4.90
2022-07-25T00:03:58.687Z,4.67
2022-07-25T00:06:27.047Z,5.17
2022-07-25T00:08:55.387Z,4.60
2022-07-25T00:11:23.840Z,4.70
2022-07-25T00:13:52.112Z,4.77
2022-07-25T00:16:21.977Z,4.53
2022-07-25T00:18:50.314Z,4.90
2022-07-25T00:21:18.781Z,5.07
2022-07-25T00:23:47.026Z,4.80
2022-07-25T00:26:16.897Z,5.03
2022-07-25T00:28:45.215Z,5.00
2022-07-25T00:31:13.619Z,4.90
2022-07-25T00:33:43.345Z,4.73
2022-07-25T00:36:11.832Z,4.83
2022-07-25T00:38:40.084Z,4.87
2022-07-25T00:41:08.393Z,5.00
2022-07-25T00:43:36.700Z,4.83
2022-07-25T00:46:05.256Z,4.80
2022-07-25T00:48:33.590Z,4.40
2022-07-25T00:51:03.236Z,5.30
2022-07-25T00:53:31.545Z,5.03
2022-07-25T00:55:59.892Z,5.03
2022-07-25T00:58:28.169Z,5.00
2022-07-25T01:00:56.673Z,4.80
2022-07-25T01:03:24.993Z,4.77
2022-07-25T01:05:53.908Z,4.70
2022-07-25T01:08:24.255Z,4.90
2022-07-25T01:10:52.603Z,4.93
2022-07-25T01:13:21.024Z,5.03
2022-07-25T01:15:49.537Z,4.83
2022-07-25T01:18:19.228Z,5.20
2022-07-25T01:20:49.061Z,5.17
2022-07-25T01:23:17.429Z,4.70
2022-07-25T01:25:45.864Z,4.77
2022-07-25T01:28:14.229Z,5.33
2022-07-25T01:30:42.766Z,4.80
2022-07-25T01:33:11.258Z,5.23
2022-07-25T01:35:43.399Z,4.93
2022-07-25T01:38:13.542Z,4.90
2022-07-25T01:40:41.866Z,5.00
2022-07-25T01:43:10.112Z,5.20
2022-07-25T01:45:38.627Z,4.37
2022-07-25T01:48:07.144Z,5.13
2022-07-25T01:50:35.444Z,5.10
2022-07-25T01:53:03.792Z,5.00
2022-07-25T01:55:33.394Z,5.00
2022-07-25T01:58:01.708Z,5.27
2022-07-25T02:00:30.084Z,4.70
2022-07-25T02:03:12.319Z,5.40
2022-07-25T02:05:43.689Z,4.87
2022-07-25T02:08:11.957Z,4.87
2022-07-25T02:10:41.683Z,4.63
2022-07-25T02:13:09.995Z,4.43
2022-07-25T02:15:38.259Z,5.03
2022-07-25T02:18:06.593Z,4.80
2022-07-25T02:20:34.989Z,4.97
2022-07-25T02:23:03.287Z,5.20
2022-07-25T02:25:31.836Z,4.93
2022-07-25T02:28:01.730Z,4.67
2022-07-25T02:30:30.136Z,4.77
2022-07-25T02:32:58.847Z,4.73
2022-07-25T02:35:28.915Z,4.90
2022-07-25T02:37:57.195Z,4.60
2022-07-25T02:40:25.492Z,4.73
2022-07-25T02:42:53.841Z,4.80
2022-07-25T02:45:23.656Z,5.37
2022-07-25T02:47:51.951Z,5.30
2022-07-25T02:50:20.319Z,5.00
2022-07-25T02:52:48.639Z,5.33
2022-07-25T02:55:16.886Z,4.77
2022-07-25T02:57:45.136Z,4.67
2022-07-25T03:00:14.531Z,5.13
2022-07-25T03:02:44.249Z,5.10
2022-07-25T03:05:14.388Z,5.30
2022-07-25T03:07:47.171Z,5.00
2022-07-25T03:10:15.930Z,5.10
2022-07-25T03:12:44.687Z,5.17
2022-07-25T03:15:16.069Z,5.50
2022-07-25T03:17:45.951Z,5.00
2022-07-25T03:20:14.649Z,5.17
2022-07-25T03:22:42.893Z,5.20
2022-07-25T03:25:15.597Z,4.83
2022-07-25T03:27:50.023Z,5.20
2022-07-25T03:30:18.463Z,4.93
2022-07-25T03:32:48.055Z,5.17
2022-07-25T03:35:16.473Z,5.17
2022-07-25T03:37:45.589Z,5.30
2022-07-25T03:40:14.428Z,5.23
2022-07-25T03:42:44.304Z,5.10
2022-07-25T03:45:12.860Z,5.50
2022-07-25T03:47:41.270Z,5.30
2022-07-25T03:50:11.460Z,5.80
2022-07-25T03:52:39.770Z,5.13
2022-07-25T03:55:08.521Z,5.70
2022-07-25T03:57:36.851Z,5.20
2022-07-25T04:00:05.832Z,5.63
2022-07-25T04:02:34.312Z,5.50
2022-07-25T04:05:02.778Z,5.67
2022-07-25T04:07:32.371Z,5.57
2022-07-25T04:10:00.681Z,5.50
2022-07-25T04:12:28.997Z,5.70
2022-07-25T04:14:57.294Z,5.23
2022-07-25T04:17:25.881Z,6.33
2022-07-25T04:19:54.245Z,5.43
2022-07-25T04:22:23.408Z,5.80
2022-07-25T04:24:53.141Z,5.40
2022-07-25T04:27:21.366Z,6.00
2022-07-25T04:29:49.653Z,5.33
2022-07-25T04:32:23.394Z,5.90
2022-07-25T04:34:52.538Z,5.47
2022-07-25T04:37:20.848Z,5.80
2022-07-25T04:39:49.291Z,5.70
2022-07-25T04:42:18.892Z,4.87
2022-07-25T04:44:47.179Z,5.50
2022-07-25T04:47:15.532Z,5.80
2022-07-25T04:49:43.770Z,5.77
2022-07-25T04:52:12.070Z,5.80
2022-07-25T04:54:40.378Z,5.77
2022-07-25T04:57:08.658Z,5.53
2022-07-25T04:59:38.342Z,5.50
2022-07-25T05:02:06.729Z,5.67
2022-07-25T05:04:35.087Z,6.00
2022-07-25T05:07:11.733Z,5.73
2022-07-25T05:09:40.069Z,5.43
2022-07-25T05:12:08.814Z,5.13
2022-07-25T05:14:38.442Z,5.83
2022-07-25T05:17:06.819Z,5.70
2022-07-25T05:19:35.233Z,5.83
2022-07-25T05:22:03.502Z,6.30
2022-07-25T05:24:34.616Z,7.00
2022-07-25T05:27:03.148Z,6.90
2022-07-25T05:29:31.570Z,6.73
2022-07-25T05:32:01.360Z,7.47
2022-07-25T05:34:29.770Z,6.33
2022-07-25T05:36:58.023Z,6.07
2022-07-25T05:39:26.392Z,6.80
2022-07-25T05:41:54.686Z,6.87
2022-07-25T05:44:23.054Z,6.20
2022-07-25T05:46:51.401Z,6.37
2022-07-25T05:49:21.165Z,5.40
2022-07-25T05:51:49.412Z,6.47
2022-07-25T05:54:19.398Z,5.90
2022-07-25T05:56:47.736Z,5.53
2022-07-25T05:59:16.003Z,5.53
2022-07-25T06:01:44.344Z,5.97
2022-07-25T06:04:12.653Z,5.63
2022-07-25T06:06:42.320Z,5.97
2022-07-25T06:09:10.660Z,5.80
2022-07-25T06:11:51.059Z,5.87
2022-07-25T06:14:26.402Z,5.50
2022-07-25T06:16:55.229Z,6.17
2022-07-25T06:19:23.580Z,5.57
2022-07-25T06:21:53.329Z,6.30
2022-07-25T06:24:21.735Z,5.33
2022-07-25T06:26:50.123Z,6.30
2022-07-25T06:29:18.446Z,6.53
2022-07-25T06:31:47.431Z,6.30
2022-07-25T06:34:20.508Z,6.30
2022-07-25T06:36:48.892Z,6.47
2022-07-25T06:39:18.743Z,6.47
2022-07-25T06:41:47.212Z,6.30
2022-07-25T06:44:15.590Z,5.70
2022-07-25T06:46:43.931Z,5.97
2022-07-25T06:49:12.444Z,5.87
2022-07-25T06:51:40.863Z,6.50
2022-07-25T06:54:09.602Z,6.13
2022-07-25T06:56:39.549Z,6.10
2022-07-25T06:59:08.019Z,6.63
2022-07-25T07:01:36.374Z,6.17
2022-07-25T07:04:07.163Z,6.40
2022-07-25T07:06:36.656Z,5.90
2022-07-25T07:09:05.145Z,6.27
2022-07-25T07:11:34.297Z,5.50
2022-07-25T07:14:04.602Z,6.87
2022-07-25T07:16:33.173Z,6.73
2022-07-25T07:19:01.626Z,6.83
2022-07-25T07:21:29.934Z,6.60
2022-07-25T07:23:58.281Z,6.97
2022-07-25T07:26:26.600Z,6.60
2022-07-25T07:28:56.026Z,6.90
2022-07-25T07:31:25.830Z,7.10
2022-07-25T07:33:54.329Z,7.20
2022-07-25T07:36:23.375Z,7.10
2022-07-25T07:38:52.951Z,6.80
2022-07-25T07:41:21.493Z,6.27
2022-07-25T07:43:49.994Z,6.57
2022-07-25T07:46:18.671Z,7.10
2022-07-25T07:48:48.443Z,6.87
2022-07-25T07:51:16.801Z,6.43
2022-07-25T07:54:03.028Z,6.97
2022-07-25T07:56:31.401Z,6.20
2022-07-25T07:59:00.254Z,7.13
2022-07-25T08:01:28.595Z,6.37
2022-07-25T08:03:58.290Z,6.40
2022-07-25T08:06:27.791Z,6.43
2022-07-25T08:08:56.414Z,6.90
2022-07-25T08:11:25.785Z,5.57
2022-07-25T08:13:54.465Z,6.33
2022-07-25T08:16:22.901Z,6.77
2022-07-25T08:18:51.610Z,6.53
2022-07-25T08:21:21.271Z,6.63
2022-07-25T08:23:49.627Z,6.43
2022-07-25T08:26:18.196Z,6.90
2022-07-25T08:28:47.191Z,6.70
2022-07-25T08:31:16.853Z,7.10
2022-07-25T08:33:45.213Z,6.73
2022-07-25T08:36:13.547Z,6.60
2022-07-25T08:38:43.319Z,6.87
2022-07-25T08:41:11.654Z,6.97
2022-07-25T08:43:41.054Z,7.50
2022-07-25T08:46:10.275Z,7.17
2022-07-25T08:48:39.792Z,6.80
2022-07-25T08:51:08.893Z,7.33
2022-07-25T08:53:37.962Z,7.13
2022-07-25T08:56:14.519Z,7.43
2022-07-25T08:58:46.191Z,7.10
2022-07-25T09:01:15.137Z,6.67
2022-07-25T09:03:43.879Z,6.17
2022-07-25T09:06:16.321Z,6.87
2022-07-25T09:08:52.459Z,7.23
2022-07-25T09:11:29.328Z,6.90
2022-07-25T09:14:01.571Z,7.00
2022-07-25T09:16:32.943Z,6.70
2022-07-25T09:19:12.058Z,6.37
2022-07-25T09:21:40.919Z,7.20
2022-07-25T09:24:10.764Z,6.27
2022-07-25T09:26:47.607Z,6.37
2022-07-25T09:29:19.829Z,6.53
2022-07-25T09:31:48.556Z,6.57
2022-07-25T09:34:21.895Z,7.00
2022-07-25T09:36:56.623Z,6.10
2022-07-25T09:39:35.850Z,6.70
2022-07-25T09:42:15.709Z,6.37
2022-07-25T09:44:44.176Z,6.27
2022-07-25T09:47:13.082Z,6.25
2022-07-25T09:49:42.755Z,6.47
2022-07-25T09:52:11.478Z,6.05
2022-07-25T09:54:40.130Z,7.53
2022-07-25T09:57:09.904Z,6.57
2022-07-25T09:59:39.500Z,6.30
2022-07-25T10:02:09.949Z,7.13
2022-07-25T10:04:46.573Z,7.13
2022-07-25T10:07:16.278Z,7.18
2022-07-25T10:09:45.761Z,6.20
2022-07-25T10:12:16.605Z,6.72
2022-07-25T10:14:45.055Z,8.82
2022-07-25T10:17:22.303Z,7.53
2022-07-25T10:19:55.394Z,10.30
2022-07-25T10:22:55.115Z,8.38
2022-07-25T10:25:25.072Z,9.25
2022-07-25T10:28:00.811Z,13.73
2022-07-25T10:30:29.969Z,7.90
2022-07-25T10:32:59.470Z,10.95
2022-07-25T10:35:28.212Z,10.38
2022-07-25T10:37:57.903Z,8.45
2022-07-25T10:40:27.850Z,6.30
2022-07-25T10:43:03.127Z,7.15
2022-07-25T10:45:42.644Z,7.07
2022-07-25T10:48:12.401Z,7.65
2022-07-25T10:50:56.914Z,7.05
2022-07-25T10:53:35.545Z,6.60
2022-07-25T10:56:11.282Z,6.82
2022-07-25T10:58:48.325Z,7.22
2022-07-25T11:01:21.216Z,6.50
2022-07-25T11:04:00.562Z,7.05
2022-07-25T11:06:32.710Z,6.38
2022-07-25T11:09:01.684Z,6.80
2022-07-25T11:11:37.265Z,6.40
2022-07-25T11:14:07.857Z,6.35
2022-07-25T11:16:36.209Z,5.72
2022-07-25T11:19:04.974Z,5.95
2022-07-25T11:21:33.447Z,5.38
2022-07-25T11:24:01.769Z,5.53
2022-07-25T11:26:30.010Z,5.00
2022-07-25T11:28:58.316Z,4.85
2022-07-25T11:31:29.835Z,4.95
2022-07-25T11:33:58.366Z,4.53
2022-07-25T11:36:26.694Z,5.43
2022-07-25T11:38:55.265Z,4.03
2022-07-25T11:41:30.085Z,4.00
2022-07-25T11:43:58.480Z,5.40
2022-07-25T11:46:28.206Z,4.20
2022-07-25T11:49:05.605Z,5.20
2022-07-25T11:51:38.058Z,5.15
2022-07-25T11:54:10.528Z,5.30
2022-07-25T11:56:42.858Z,4.10
2022-07-25T11:59:12.393Z,4.07
2022-07-25T12:01:42.923Z,4.15
2022-07-25T12:04:12.249Z,4.50
2022-07-25T12:06:40.605Z,3.83
2022-07-25T12:09:18.038Z,3.97
2022-07-25T12:11:47.450Z,4.60
2022-07-25T12:14:15.888Z,4.85
2022-07-25T12:16:45.818Z,4.40
2022-07-25T12:19:20.510Z,4.40
2022-07-25T12:21:48.907Z,4.80
2022-07-25T12:24:17.283Z,4.18
2022-07-25T12:26:45.618Z,4.25
2022-07-25T12:29:13.963Z,4.32
2022-07-25T12:31:42.278Z,3.92
2022-07-25T12:34:11.995Z,4.18
2022-07-25T12:36:43.972Z,4.18
2022-07-25T12:39:12.628Z,3.85
2022-07-25T12:41:42.524Z,4.13
2022-07-25T12:44:11.080Z,4.05
2022-07-25T12:46:44.631Z,4.25
2022-07-25T12:49:18.892Z,3.90
2022-07-25T12:51:47.247Z,4.45
2022-07-25T12:54:22.065Z,4.30
2022-07-25T12:56:51.700Z,3.70
2022-07-25T12:59:20.075Z,4.38
2022-07-25T13:01:48.590Z,3.90
2022-07-25T13:04:17.043Z,3.97
2022-07-25T13:06:46.754Z,4.20
2022-07-25T13:09:15.102Z,3.72
2022-07-25T13:11:43.415Z,3.85
2022-07-25T13:14:11.883Z,4.38
2022-07-25T13:16:40.347Z,4.03
2022-07-25T13:19:09.016Z,4.28
2022-07-25T13:21:37.820Z,4.55
2022-07-25T13:24:08.340Z,4.03
2022-07-25T13:26:36.987Z,4.03
2022-07-25T13:29:08.576Z,4.57
2022-07-25T13:31:37.951Z,4.25
2022-07-25T13:34:06.323Z,3.70
2022-07-25T13:36:34.689Z,3.83
2022-07-25T13:39:03.177Z,3.33
2022-07-25T13:41:32.985Z,3.80
2022-07-25T13:44:01.368Z,4.00
2022-07-25T13:46:29.644Z,3.72
2022-07-25T13:48:57.952Z,3.75
2022-07-25T13:51:26.331Z,4.10
2022-07-25T13:53:54.651Z,3.65
2022-07-25T13:56:28.799Z,3.92
2022-07-25T13:58:58.441Z,4.25
2022-07-25T14:01:28.584Z,4.10
2022-07-25T14:03:56.992Z,4.28
2022-07-25T14:06:25.263Z,4.30
2022-07-25T14:08:53.586Z,3.55
2022-07-25T14:11:24.801Z,4.20
2022-07-25T14:13:55.690Z,4.43
2022-07-25T14:16:25.397Z,4.25
2022-07-25T14:18:54.873Z,4.20
2022-07-25T14:21:23.207Z,4.25
2022-07-25T14:23:51.702Z,4.53
2022-07-25T14:26:20.006Z,4.68
2022-07-25T14:28:48.464Z,4.30
2022-07-25T14:31:17.320Z,4.63
2022-07-25T14:33:47.043Z,4.50
2022-07-25T14:36:15.391Z,4.30
2022-07-25T14:38:43.714Z,4.40
2022-07-25T14:41:13.230Z,4.15
2022-07-25T14:43:41.703Z,3.80
2022-07-25T14:46:10.107Z,4.18
2022-07-25T14:48:39.031Z,3.97
2022-07-25T14:51:09.094Z,3.70
2022-07-25T14:53:38.012Z,3.88
2022-07-25T14:56:07.171Z,4.05
2022-07-25T14:58:36.092Z,3.80
2022-07-25T15:01:04.442Z,3.92
2022-07-25T15:03:33.049Z,4.05
2022-07-25T15:06:02.008Z,3.70
2022-07-25T15:08:31.645Z,4.10
2022-07-25T15:10:59.927Z,4.80
2022-07-25T15:13:31.563Z,4.30
2022-07-25T15:16:00.449Z,4.55
2022-07-25T15:18:29.057Z,4.15
2022-07-25T15:20:57.270Z,3.42
2022-07-25T15:23:28.665Z,4.30
2022-07-25T15:26:02.914Z,4.03
2022-07-25T15:28:31.769Z,5.82
2022-07-25T15:31:00.164Z,4.80
2022-07-25T15:33:28.656Z,4.15
2022-07-25T15:35:57.003Z,4.10
2022-07-25T15:38:25.640Z,5.22
2022-07-25T15:40:54.016Z,8.98
2022-07-25T15:43:23.722Z,4.78
2022-07-25T15:45:52.047Z,4.47
2022-07-25T15:48:20.488Z,4.38
2022-07-25T15:50:51.369Z,4.63
2022-07-25T15:53:19.763Z,4.28
2022-07-25T15:55:48.097Z,4.30
2022-07-25T15:58:16.468Z,4.35
2022-07-25T16:00:46.125Z,4.65
2022-07-25T16:03:14.838Z,4.40
2022-07-25T16:05:44.808Z,4.05
2022-07-25T16:08:13.250Z,4.97
2022-07-25T16:10:41.673Z,4.20
2022-07-25T16:13:10.165Z,5.03
2022-07-25T16:15:38.720Z,5.00
2022-07-25T16:18:08.395Z,4.40
2022-07-25T16:20:36.727Z,4.60
2022-07-25T16:23:05.015Z,5.07
2022-07-25T16:25:33.443Z,4.93
2022-07-25T16:28:02.308Z,4.13
2022-07-25T16:30:30.846Z,4.05
2022-07-25T16:32:59.187Z,4.15
2022-07-25T16:35:28.890Z,4.47
2022-07-25T16:37:57.352Z,3.90
2022-07-25T16:40:30.304Z,4.60
2022-07-25T16:42:59.714Z,4.30
2022-07-25T16:45:28.908Z,4.40
2022-07-25T16:47:58.219Z,5.10
2022-07-25T16:50:26.553Z,4.07
2022-07-25T16:52:56.275Z,4.47
2022-07-25T16:55:24.635Z,3.88
2022-07-25T16:57:53.038Z,4.65
2022-07-25T17:00:21.345Z,4.10
2022-07-25T17:02:49.716Z,4.05
2022-07-25T17:05:18.450Z,4.90
2022-07-25T17:07:48.953Z,3.70
2022-07-25T17:10:25.209Z,3.35
2022-07-25T17:12:53.595Z,3.15
2022-07-25T17:15:37.270Z,3.80
2022-07-25T17:18:06.267Z,3.60
2022-07-25T17:23:41.551Z,3.97
2022-07-25T17:26:11.317Z,3.83
2022-07-25T17:28:39.767Z,3.80
2022-07-25T17:31:09.096Z,4.30
2022-07-25T17:33:37.469Z,4.03
2022-07-25T17:36:06.116Z,3.77
2022-07-25T17:38:35.314Z,3.57
2022-07-25T17:41:03.681Z,3.60
2022-07-25T17:43:33.465Z,3.77
2022-07-25T17:46:02.095Z,3.07
2022-07-25T17:48:30.656Z,2.97
2022-07-25T17:50:59.614Z,3.30
2022-07-25T17:53:28.014Z,3.27
2022-07-25T17:55:56.384Z,3.00
2022-07-25T17:58:24.821Z,3.10
2022-07-25T18:00:59.524Z,2.67
2022-07-25T18:03:29.350Z,3.00
2022-07-25T18:05:58.016Z,3.10
2022-07-25T18:08:29.961Z,2.53
2022-07-25T18:10:58.245Z,2.67
2022-07-25T18:13:26.572Z,2.33
2022-07-25T18:15:56.658Z,2.70
2022-07-25T18:18:24.954Z,2.77
2022-07-25T18:20:53.214Z,2.30
2022-07-25T18:23:21.508Z,2.40
2022-07-25T18:25:49.750Z,2.83
2022-07-25T18:28:18.259Z,2.30
2022-07-25T18:30:46.799Z,3.10
2022-07-25T18:33:17.142Z,2.30
2022-07-25T18:35:47.460Z,2.57
2022-07-25T18:38:15.716Z,2.40
2022-07-25T18:40:44.116Z,2.07
2022-07-25T18:43:12.822Z,2.30
2022-07-25T18:45:42.184Z,2.20
2022-07-25T18:48:11.327Z,1.90
2022-07-25T18:50:41.119Z,1.93
2022-07-25T18:53:09.635Z,2.00
2022-07-25T18:55:38.006Z,2.30
2022-07-25T18:58:08.867Z,1.90
2022-07-25T19:00:37.377Z,2.03
2022-07-25T19:03:07.456Z,2.17
2022-07-25T19:05:35.825Z,2.10
2022-07-25T19:08:06.302Z,2.03
2022-07-25T19:10:34.732Z,1.83
2022-07-25T19:13:03.011Z,2.30
2022-07-25T19:15:31.450Z,2.23
2022-07-25T19:17:59.859Z,2.10
2022-07-25T19:20:28.410Z,2.50
2022-07-25T19:22:56.823Z,2.30
2022-07-25T19:25:26.564Z,2.40
2022-07-25T19:27:55.462Z,2.00
2022-07-25T19:30:23.736Z,2.03
2022-07-25T19:32:52.176Z,2.47
2022-07-25T19:35:26.115Z,2.20
2022-07-25T19:37:54.869Z,1.90
2022-07-25T19:40:23.429Z,2.07
2022-07-25T19:42:53.281Z,2.10
2022-07-25T19:45:21.732Z,2.23
2022-07-25T19:47:52.055Z,2.10
2022-07-25T19:50:20.669Z,2.40
2022-07-25T19:52:49.210Z,2.53
2022-07-25T19:55:17.840Z,2.07
2022-07-25T19:57:46.190Z,2.43
2022-07-25T20:00:16.394Z,2.10
2022-07-25T20:02:44.849Z,2.50
2022-07-25T20:05:13.267Z,2.20
2022-07-25T20:07:41.572Z,2.47
2022-07-25T20:10:10.501Z,2.60
2022-07-25T20:12:38.813Z,2.53
2022-07-25T20:15:07.882Z,2.40
2022-07-25T20:17:37.628Z,2.37
2022-07-25T20:20:06.378Z,2.57
2022-07-25T20:22:37.496Z,2.30
2022-07-25T20:25:06.576Z,1.97
2022-07-25T20:27:35.447Z,1.90
2022-07-25T20:30:04.225Z,2.20
2022-07-25T20:32:32.581Z,2.20
2022-07-25T20:35:02.253Z,2.40
2022-07-25T20:37:30.548Z,2.23
2022-07-25T20:39:59.983Z,2.27
2022-07-25T20:42:28.318Z,2.03
2022-07-25T20:44:57.416Z,2.23
2022-07-25T20:47:25.937Z,2.40
2022-07-25T20:49:54.232Z,2.73
2022-07-25T20:52:24.265Z,2.30
2022-07-25T20:54:52.742Z,2.40
2022-07-25T20:57:22.339Z,2.00
2022-07-25T20:59:50.673Z,2.27
2022-07-25T21:02:19.427Z,2.10
2022-07-25T21:04:48.613Z,2.40
2022-07-25T21:07:17.273Z,2.13
2022-07-25T21:09:46.951Z,2.33
2022-07-25T21:12:15.337Z,1.67
2022-07-25T21:14:43.825Z,1.80
2022-07-25T21:17:15.128Z,1.80
2022-07-25T21:19:43.447Z,1.60
2022-07-25T21:22:11.738Z,1.77
2022-07-25T21:24:41.984Z,1.97
2022-07-25T21:27:11.624Z,1.50
2022-07-25T21:29:39.915Z,1.60
2022-07-25T21:32:08.543Z,1.60
2022-07-25T21:34:38.582Z,1.60
2022-07-25T21:37:06.982Z,1.30
2022-07-25T21:39:35.391Z,1.67
2022-07-25T21:42:04.202Z,1.73
2022-07-25T21:44:34.012Z,1.63
2022-07-25T21:47:02.362Z,1.70
2022-07-25T21:49:48.460Z,1.70
2022-07-25T21:52:18.930Z,1.47
2022-07-25T21:54:58.498Z,1.40
2022-07-25T21:57:27.019Z,1.80
2022-07-25T21:59:56.720Z,2.10
2022-07-25T22:02:25.131Z,1.90
2022-07-25T22:04:53.433Z,1.97
2022-07-25T22:07:22.240Z,2.27
2022-07-25T22:09:50.569Z,2.20
2022-07-25T22:12:19.271Z,2.13
2022-07-25T22:14:47.652Z,1.80
2022-07-25T22:17:17.287Z,1.90
2022-07-25T22:19:45.630Z,2.07
2022-07-25T22:22:14.035Z,1.90
2022-07-25T22:24:46.457Z,2.23
2022-07-25T22:27:15.165Z,2.23
2022-07-25T22:29:43.645Z,1.93
2022-07-25T22:32:12.105Z,1.87
2022-07-25T22:34:41.892Z,2.10
2022-07-25T22:37:10.168Z,2.00
2022-07-25T22:39:38.546Z,2.23
2022-07-25T22:42:07.111Z,2.40
2022-07-25T22:44:35.420Z,2.23
2022-07-25T22:47:03.715Z,2.50
2022-07-25T22:49:32.195Z,2.40
2022-07-25T22:52:01.995Z,1.97
2022-07-25T22:54:30.340Z,2.10
2022-07-25T22:56:58.684Z,2.30
2022-07-25T22:59:27.025Z,2.30
2022-07-25T23:01:55.361Z,2.30
2022-07-25T23:04:23.716Z,2.13
2022-07-25T23:06:52.325Z,2.00
2022-07-25T23:09:23.436Z,2.00
2022-07-25T23:11:51.769Z,2.00
2022-07-25T23:14:20.037Z,1.80
2022-07-25T23:17:08.867Z,1.87
2022-07-25T23:19:37.242Z,1.67
2022-07-25T23:22:05.588Z,2.00
2022-07-25T23:24:37.896Z,1.93
2022-07-25T23:27:07.093Z,1.80
2022-07-25T23:29:35.375Z,2.10
2022-07-25T23:32:03.775Z,2.03
2022-07-25T23:34:32.155Z,2.20
2022-07-25T23:37:00.488Z,1.50
2022-07-25T23:39:31.805Z,1.63
2022-07-25T23:42:01.795Z,1.90
2022-07-25T23:44:30.145Z,1.63
2022-07-25T23:46:59.845Z,1.90
2022-07-25T23:49:29.872Z,1.53
2022-07-25T23:51:58.556Z,1.50
2022-07-25T23:54:27.182Z,2.40
2022-07-25T23:56:55.560Z,1.70
2022-07-25T23:59:25.282Z,1.80
